createdAt,value
2019-02-19T00:01:28.092Z,231.4
2019-02-19T00:11:28.698Z,232.4
2019-02-19T00:21:26.758Z,231.2
2019-02-19T00:31:26.346Z,235.6
2019-02-19T00:41:26.834Z,230.7
2019-02-19T00:51:28.142Z,228.2
2019-02-19T01:01:28.737Z,238.4
2019-02-19T01:11:28.358Z,218.0
2019-02-19T01:21:28.452Z,221.2
2019-02-19T01:31:29.091Z,219.4
2019-02-19T01:41:26.536Z,203.0
2019-02-19T01:51:27.042Z,213.0
2019-02-19T02:01:27.290Z,223.0
2019-02-19T02:11:28.097Z,205.2
2019-02-19T02:21:26.850Z,209.2
2019-02-19T02:31:27.110Z,189.5
2019-02-19T02:41:32.106Z,196.9
2019-02-19T02:51:26.716Z,196.2
2019-02-19T03:01:27.778Z,188.3
2019-02-19T03:11:27.007Z,174.5
2019-02-19T03:21:27.572Z,185.6
2019-02-19T03:31:29.399Z,182.8
2019-02-19T03:41:27.038Z,185.9
2019-02-19T03:51:27.741Z,194.3
2019-02-19T04:01:28.214Z,170.4
2019-02-19T04:11:29.397Z,174.4
2019-02-19T04:21:27.857Z,164.4
2019-02-19T04:31:26.593Z,190.1
2019-02-19T04:41:27.566Z,183.9
2019-02-19T04:51:28.377Z,179.3
2019-02-19T05:01:32.504Z,183.4
2019-02-19T05:11:30.370Z,180.5
2019-02-19T05:21:28.474Z,172.8
2019-02-19T05:31:27.626Z,175.6
2019-02-19T05:41:28.258Z,184.6
2019-02-19T05:51:28.154Z,181.4
2019-02-19T06:01:26.672Z,134.6
2019-02-19T06:11:29.981Z,147.7
2019-02-19T06:21:29.734Z,161.6
2019-02-19T06:31:27.006Z,171.0
2019-02-19T06:41:26.872Z,137.0
2019-02-19T06:51:26.654Z,138.9
2019-02-19T07:01:32.755Z,152.6
2019-02-19T07:11:27.579Z,127.5
2019-02-19T07:21:33.266Z,130.0
2019-02-19T07:31:32.799Z,138.4
2019-02-19T07:41:26.361Z,172.8
2019-02-19T07:51:26.922Z,178.5
2019-02-19T08:01:30.164Z,169.7
2019-02-19T08:11:26.639Z,194.0
2019-02-19T08:21:26.558Z,188.8
2019-02-19T08:31:29.730Z,193.6
2019-02-19T08:41:26.148Z,201.2
2019-02-19T08:51:28.088Z,181.7
2019-02-19T09:01:26.995Z,176.9
2019-02-19T09:11:30.033Z,180.3
2019-02-19T09:21:27.317Z,164.3
2019-02-19T09:31:28.476Z,124.3
2019-02-19T09:41:30.497Z,94.9
2019-02-19T09:51:27.002Z,78.8
2019-02-19T10:01:28.799Z,73.0
2019-02-19T10:11:26.788Z,71.2
2019-02-19T10:21:26.977Z,74.3
2019-02-19T10:31:26.707Z,64.0
2019-02-19T10:41:31.822Z,54.0
2019-02-19T10:51:26.484Z,56.0
2019-02-19T11:01:28.450Z,45.4
2019-02-19T11:11:27.116Z,47.5
2019-02-19T11:21:28.692Z,45.1
2019-02-19T11:31:27.562Z,46.1
2019-02-19T11:41:27.855Z,52.8
2019-02-19T11:51:27.412Z,41.2
2019-02-19T12:01:27.266Z,40.5
2019-02-19T12:11:32.548Z,38.0
2019-02-19T12:21:29.267Z,46.7
2019-02-19T12:31:27.144Z,44.5
2019-02-19T12:41:26.815Z,48.8
2019-02-19T12:51:27.435Z,49.4
2019-02-19T13:01:27.183Z,44.2
2019-02-19T13:11:26.855Z,37.2
2019-02-19T13:21:27.191Z,42.8
2019-02-19T13:31:26.919Z,38.7
2019-02-19T13:41:26.845Z,31.4
2019-02-19T13:51:26.689Z,34.3
2019-02-19T14:01:32.759Z,29.3
2019-02-19T14:11:27.008Z,32.8
2019-02-19T14:21:27.473Z,29.4
2019-02-19T14:31:30.234Z,31.1
2019-02-19T14:41:27.661Z,35.8
2019-02-19T14:51:27.954Z,37.0
2019-02-19T15:01:27.451Z,32.8
2019-02-19T15:11:27.347Z,44.1
2019-02-19T15:21:27.468Z,47.2
2019-02-19T15:31:27.118Z,39.7
2019-02-19T15:41:26.899Z,43.6
2019-02-19T15:51:28.058Z,40.4
2019-02-19T16:01:28.195Z,40.5
2019-02-19T16:11:27.350Z,43.6
2019-02-19T16:21:27.320Z,38.2
2019-02-19T16:31:28.858Z,41.9
2019-02-19T16:41:26.425Z,46.5
2019-02-19T16:51:27.206Z,47.1
2019-02-19T17:01:27.464Z,47.0
2019-02-19T17:11:28.040Z,55.4
2019-02-19T17:21:27.583Z,48.0
2019-02-19T17:31:28.759Z,56.4
2019-02-19T17:41:26.432Z,71.3
2019-02-19T17:51:27.316Z,60.2
2019-02-19T18:01:27.887Z,48.7
2019-02-19T18:11:26.727Z,55.6
2019-02-19T18:21:29.498Z,61.0
2019-02-19T18:31:28.185Z,65.5
2019-02-19T18:41:28.516Z,49.1
2019-02-19T18:51:27.147Z,63.0
2019-02-19T19:01:28.246Z,59.3
2019-02-19T19:11:28.004Z,51.9
2019-02-19T19:21:28.611Z,53.4
2019-02-19T19:31:34.501Z,58.6
2019-02-19T19:41:28.144Z,63.2
2019-02-19T19:51:27.261Z,67.6
2019-02-19T20:01:27.759Z,75.3
2019-02-19T20:11:27.111Z,76.4
2019-02-19T20:21:27.862Z,64.6
2019-02-19T20:31:27.887Z,75.1
2019-02-19T20:41:29.395Z,76.9
2019-02-19T20:51:37.002Z,76.1
2019-02-19T21:01:27.132Z,66.9
2019-02-19T21:11:28.369Z,82.2
2019-02-19T21:21:27.860Z,89.8
2019-02-19T21:31:26.591Z,92.5
2019-02-19T21:41:27.222Z,115.8
2019-02-19T21:51:27.332Z,102.3
2019-02-19T22:01:27.023Z,90.8
2019-02-19T22:11:27.379Z,92.9
2019-02-19T22:21:29.040Z,105.4
2019-02-19T22:31:26.648Z,69.3
2019-02-19T22:41:29.747Z,50.1
2019-02-19T22:51:26.324Z,37.7
2019-02-19T23:01:26.855Z,32.0
2019-02-19T23:11:27.751Z,28.5
2019-02-19T23:21:26.945Z,31.7
2019-02-19T23:31:26.878Z,38.7
2019-02-19T23:41:27.509Z,46.7
2019-02-19T23:51:26.838Z,48.1
